createdAt,value
2018-02-09T00:02:10.427Z,100549.46
2018-02-09T00:04:37.876Z,100553.54
2018-02-09T00:07:05.374Z,100547.50
2018-02-09T00:09:32.953Z,100554.33
2018-02-09T00:12:00.481Z,100545.59
2018-02-09T00:14:28.027Z,100548.04
2018-02-09T00:16:56.237Z,100548.55
2018-02-09T00:19:23.908Z,100538.28
2018-02-09T00:21:51.360Z,100541.52
2018-02-09T00:24:18.820Z,100544.06
2018-02-09T00:26:46.345Z,100543.06
2018-02-09T00:29:13.930Z,100537.42
2018-02-09T00:31:41.544Z,100533.61
2018-02-09T00:34:09.005Z,100527.97
2018-02-09T00:36:36.545Z,100530.19
2018-02-09T00:39:04.023Z,100529.93
2018-02-09T00:41:31.718Z,100529.02
2018-02-09T00:43:59.993Z,100532.48
2018-02-09T00:46:27.614Z,100533.20
2018-02-09T00:48:55.089Z,100535.20
2018-02-09T00:51:22.533Z,100531.87
2018-02-09T00:53:50.483Z,100531.38
2018-02-09T00:56:17.907Z,100540.39
2018-02-09T00:58:45.523Z,100536.74
2018-02-09T01:01:12.984Z,100538.56
2018-02-09T01:03:40.441Z,100534.53
2018-02-09T01:06:07.905Z,100534.17
2018-02-09T01:08:35.352Z,100535.87
2018-02-09T01:11:02.842Z,100542.70
2018-02-09T01:13:30.509Z,100544.50
2018-02-09T01:15:58.001Z,100541.73
2018-02-09T01:18:25.797Z,100538.28
2018-02-09T01:20:53.247Z,100538.16
2018-02-09T01:23:20.760Z,100533.41
2018-02-09T01:25:48.234Z,100533.61
2018-02-09T01:28:15.657Z,100533.41
2018-02-09T01:30:43.288Z,100525.97
2018-02-09T01:33:10.735Z,100521.94
2018-02-09T01:35:38.176Z,100515.77
2018-02-09T01:38:05.633Z,100508.72
2018-02-09T01:40:33.106Z,100507.02
2018-02-09T01:43:00.902Z,100506.19
2018-02-09T01:45:28.410Z,100509.78
2018-02-09T01:47:55.841Z,100499.19
2018-02-09T01:50:23.353Z,100502.68
2018-02-09T01:52:50.800Z,100497.13
2018-02-09T01:55:18.304Z,100496.22
2018-02-09T01:57:45.815Z,100495.77
2018-02-09T02:00:13.325Z,100493.45
2018-02-09T02:02:40.824Z,100485.84
2018-02-09T02:05:08.329Z,100490.38
2018-02-09T02:07:35.786Z,100489.99
2018-02-09T02:10:03.238Z,100488.05
2018-02-09T02:12:30.737Z,100486.73
2018-02-09T02:14:58.169Z,100482.41
2018-02-09T02:17:25.612Z,100486.29
2018-02-09T02:19:53.071Z,100479.55
2018-02-09T02:22:20.626Z,100476.00
2018-02-09T02:24:48.086Z,100474.13
2018-02-09T02:27:15.531Z,100469.33
2018-02-09T02:29:43.162Z,100471.42
2018-02-09T02:32:10.632Z,100464.97
2018-02-09T02:34:38.364Z,100466.84
2018-02-09T02:37:05.838Z,100460.73
2018-02-09T02:39:33.301Z,100464.28
2018-02-09T02:42:00.939Z,100455.72
2018-02-09T02:44:28.416Z,100452.70
2018-02-09T02:46:55.855Z,100451.81
2018-02-09T02:49:23.378Z,100453.72
2018-02-09T02:51:50.812Z,100446.92
2018-02-09T02:54:18.331Z,100448.69
2018-02-09T02:56:45.757Z,100444.36
2018-02-09T02:59:13.253Z,100439.06
2018-02-09T03:01:40.696Z,100441.22
2018-02-09T03:04:08.142Z,100442.15
2018-02-09T03:06:35.563Z,100439.61
2018-02-09T03:09:03.085Z,100437.03
2018-02-09T03:11:30.501Z,100441.47
2018-02-09T03:13:57.932Z,100438.86
2018-02-09T03:16:25.377Z,100442.36
2018-02-09T03:18:52.841Z,100428.82
2018-02-09T03:21:20.289Z,100429.70
2018-02-09T03:23:47.716Z,100426.73
2018-02-09T03:26:15.171Z,100423.98
2018-02-09T03:28:42.618Z,100423.30
2018-02-09T03:31:10.064Z,100423.81
2018-02-09T03:33:37.513Z,100423.83
2018-02-09T03:36:05.121Z,100421.56
2018-02-09T03:38:32.654Z,100428.58
2018-02-09T03:41:00.621Z,100432.51
2018-02-09T03:43:28.152Z,100429.80
2018-02-09T03:45:55.610Z,100429.24
2018-02-09T03:48:23.045Z,100427.59
2018-02-09T03:50:50.517Z,100433.37
2018-02-09T03:53:17.943Z,100438.16
2018-02-09T03:55:45.370Z,100433.84
2018-02-09T03:58:12.812Z,100427.63
2018-02-09T04:00:40.266Z,100432.38
2018-02-09T04:03:07.719Z,100434.65
2018-02-09T04:05:35.149Z,100424.73
2018-02-09T04:08:02.626Z,100422.93
2018-02-09T04:10:30.867Z,100424.96
2018-02-09T04:12:58.432Z,100420.10
2018-02-09T04:15:25.854Z,100423.77
2018-02-09T04:17:53.320Z,100427.50
2018-02-09T04:20:20.769Z,100420.16
2018-02-09T04:22:48.226Z,100427.37
2018-02-09T04:25:15.665Z,100416.01
2018-02-09T04:27:43.157Z,100420.42
2018-02-09T04:30:10.604Z,100418.55
2018-02-09T04:32:38.483Z,100416.55
2018-02-09T04:35:05.946Z,100414.41
2018-02-09T04:37:33.376Z,100408.86
2018-02-09T04:40:00.945Z,100409.03
2018-02-09T04:42:28.414Z,100410.37
2018-02-09T04:44:55.849Z,100408.44
2018-02-09T04:47:23.342Z,100407.89
2018-02-09T04:49:50.834Z,100405.06
2018-02-09T04:52:18.304Z,100407.80
2018-02-09T04:54:45.790Z,100402.40
2018-02-09T04:57:13.209Z,100398.47
2018-02-09T04:59:40.658Z,100395.35
2018-02-09T05:02:08.097Z,100400.53
2018-02-09T05:04:35.553Z,100396.20
2018-02-09T05:07:02.984Z,100389.92
2018-02-09T05:09:31.349Z,100389.66
2018-02-09T05:11:58.793Z,100386.75
2018-02-09T05:14:26.236Z,100389.64
2018-02-09T05:16:53.682Z,100384.77
2018-02-09T05:19:21.132Z,100377.21
2018-02-09T05:21:48.575Z,100378.06
2018-02-09T05:24:15.993Z,100380.89
2018-02-09T05:26:43.489Z,100379.53
2018-02-09T05:29:10.908Z,100373.96
2018-02-09T05:31:38.362Z,100375.14
2018-02-09T05:34:05.833Z,100371.94
2018-02-09T05:36:33.275Z,100370.30
2018-02-09T05:39:01.206Z,100364.62
2018-02-09T05:41:28.657Z,100365.52
2018-02-09T05:43:56.182Z,100360.67
2018-02-09T05:46:23.654Z,100360.53
2018-02-09T05:48:51.088Z,100356.84
2018-02-09T05:51:18.588Z,100361.09
2018-02-09T05:53:46.134Z,100358.72
2018-02-09T05:56:13.584Z,100355.56
2018-02-09T05:58:41.017Z,100355.73
2018-02-09T06:01:08.502Z,100359.06
2018-02-09T06:03:35.936Z,100351.28
2018-02-09T06:06:03.372Z,100346.76
2018-02-09T06:08:31.534Z,100350.19
2018-02-09T06:10:59.353Z,100352.02
2018-02-09T06:13:26.809Z,100346.79
2018-02-09T06:15:54.258Z,100352.33
2018-02-09T06:18:21.711Z,100343.66
2018-02-09T06:20:49.149Z,100348.50
2018-02-09T06:23:16.592Z,100344.12
2018-02-09T06:25:44.043Z,100342.62
2018-02-09T06:28:11.529Z,100337.31
2018-02-09T06:30:38.960Z,100343.26
2018-02-09T06:33:06.458Z,100348.41
2018-02-09T06:35:33.880Z,100339.48
2018-02-09T06:38:01.382Z,100348.27
2018-02-09T06:40:28.824Z,100350.48
2018-02-09T06:42:56.274Z,100352.66
2018-02-09T06:45:23.702Z,100354.12
2018-02-09T06:47:51.124Z,100349.88
2018-02-09T06:50:18.681Z,100345.16
2018-02-09T06:52:46.262Z,100351.48
2018-02-09T06:55:13.722Z,100355.41
2018-02-09T06:57:46.726Z,100354.02
2018-02-09T07:00:14.177Z,100350.09
2018-02-09T07:02:41.650Z,100356.86
2018-02-09T07:05:09.105Z,100351.71
2018-02-09T07:07:36.531Z,100359.63
2018-02-09T07:10:03.996Z,100357.55
2018-02-09T07:12:31.552Z,100348.70
2018-02-09T07:14:59.005Z,100360.70
2018-02-09T07:17:26.523Z,100360.09
2018-02-09T07:19:54.004Z,100359.48
2018-02-09T07:22:21.631Z,100355.05
2018-02-09T07:24:49.124Z,100353.23
2018-02-09T07:27:16.546Z,100349.91
2018-02-09T07:29:44.011Z,100349.13
2018-02-09T07:32:11.477Z,100348.95
2018-02-09T07:34:38.920Z,100348.42
2018-02-09T07:37:06.416Z,100347.48
2018-02-09T07:39:33.917Z,100352.25
2018-02-09T07:42:05.722Z,100347.61
2018-02-09T07:44:33.151Z,100355.42
2018-02-09T07:47:00.596Z,100345.17
2018-02-09T07:49:28.025Z,100340.70
2018-02-09T07:51:55.488Z,100335.33
2018-02-09T07:54:22.941Z,100341.20
2018-02-09T07:56:51.229Z,100333.08
2018-02-09T07:59:18.666Z,100331.84
2018-02-09T08:01:46.108Z,100331.55
2018-02-09T08:04:13.575Z,100328.16
2018-02-09T08:06:41.017Z,100326.41
2018-02-09T08:09:08.459Z,100325.84
2018-02-09T08:11:35.984Z,100325.14
2018-02-09T08:14:03.498Z,100327.28
2018-02-09T08:16:31.761Z,100321.57
2018-02-09T08:18:59.204Z,100325.15
2018-02-09T08:21:26.660Z,100320.23
2018-02-09T08:23:54.104Z,100312.03
2018-02-09T08:26:21.615Z,100314.13
2018-02-09T08:28:49.073Z,100306.21
2018-02-09T08:31:16.569Z,100302.54
2018-02-09T08:33:44.025Z,100298.16
2018-02-09T08:36:11.461Z,100300.69
2018-02-09T08:38:38.941Z,100292.84
2018-02-09T08:41:06.368Z,100295.55
2018-02-09T08:43:33.907Z,100292.55
2018-02-09T08:46:01.880Z,100294.84
2018-02-09T08:48:29.356Z,100292.88
2018-02-09T08:50:56.785Z,100295.47
2018-02-09T08:53:24.238Z,100297.16
2018-02-09T08:55:51.690Z,100295.39
2018-02-09T08:58:20.133Z,100298.75
2018-02-09T09:00:47.706Z,100300.66
2018-02-09T09:03:15.237Z,100292.54
2018-02-09T09:05:42.676Z,100295.09
2018-02-09T09:08:10.118Z,100302.38
2018-02-09T09:10:37.556Z,100300.64
2018-02-09T09:13:04.998Z,100298.63
2018-02-09T09:15:37.258Z,100295.61
2018-02-09T09:18:04.685Z,100296.31
2018-02-09T09:20:32.241Z,100293.73
2018-02-09T09:22:59.707Z,100295.09
2018-02-09T09:25:27.174Z,100302.98
2018-02-09T09:27:54.659Z,100298.68
2018-02-09T09:30:22.209Z,100299.59
2018-02-09T09:32:50.108Z,100304.67
2018-02-09T09:35:17.573Z,100307.11
2018-02-09T09:37:45.015Z,100289.36
2018-02-09T09:40:12.529Z,100287.50
2018-02-09T09:42:39.969Z,100291.59
2018-02-09T09:45:07.487Z,100283.23
2018-02-09T09:47:34.939Z,100283.78
2018-02-09T09:50:02.390Z,100275.33
2018-02-09T09:52:29.869Z,100277.84
2018-02-09T09:54:57.312Z,100278.95
2018-02-09T09:57:24.752Z,100289.48
2018-02-09T09:59:52.192Z,100281.92
2018-02-09T10:02:31.439Z,100272.44
2018-02-09T10:04:58.859Z,100269.39
2018-02-09T10:07:26.367Z,100273.50
2018-02-09T10:09:53.835Z,100268.09
2018-02-09T10:12:21.636Z,100264.26
2018-02-09T10:14:49.081Z,100257.86
2018-02-09T10:17:16.524Z,100258.48
2018-02-09T10:19:43.958Z,100256.92
2018-02-09T10:22:11.416Z,100250.94
2018-02-09T10:24:38.849Z,100249.02
2018-02-09T10:27:06.299Z,100245.88
2018-02-09T10:29:33.800Z,100245.88
2018-02-09T10:32:01.266Z,100240.80
2018-02-09T10:34:28.700Z,100239.42
2018-02-09T10:36:56.154Z,100236.38
2018-02-09T10:39:23.620Z,100231.04
2018-02-09T10:41:51.074Z,100226.92
2018-02-09T10:44:18.529Z,100226.66
2018-02-09T10:46:45.989Z,100225.33
2018-02-09T10:49:13.432Z,100222.23
2018-02-09T10:51:40.932Z,100220.52
2018-02-09T10:54:08.456Z,100206.97
2018-02-09T10:56:35.897Z,100212.56
2018-02-09T10:59:03.347Z,100215.14
2018-02-09T11:01:36.769Z,100210.60
2018-02-09T11:04:04.222Z,100203.20
2018-02-09T11:06:32.396Z,100197.58
2018-02-09T11:08:59.855Z,100205.99
2018-02-09T11:11:27.321Z,100202.61
2018-02-09T11:13:54.762Z,100203.08
2018-02-09T11:16:22.204Z,100198.55
2018-02-09T11:18:49.662Z,100197.26
2018-02-09T11:21:17.087Z,100193.45
2018-02-09T11:23:44.535Z,100184.81
2018-02-09T11:26:11.973Z,100180.24
2018-02-09T11:28:39.416Z,100180.45
2018-02-09T11:31:06.869Z,100179.60
2018-02-09T11:33:34.326Z,100181.68
2018-02-09T11:36:04.732Z,100177.08
2018-02-09T11:38:32.612Z,100172.22
2018-02-09T11:41:00.130Z,100171.14
2018-02-09T11:43:27.618Z,100154.03
2018-02-09T11:45:55.090Z,100155.63
2018-02-09T11:48:22.545Z,100163.52
2018-02-09T11:50:50.090Z,100162.17
2018-02-09T11:53:17.537Z,100159.31
2018-02-09T11:55:45.000Z,100158.69
2018-02-09T11:58:12.459Z,100156.45
2018-02-09T12:00:39.916Z,100146.70
2018-02-09T12:03:07.417Z,100149.41
2018-02-09T12:05:34.864Z,100146.46
2018-02-09T12:08:02.520Z,100153.30
2018-02-09T12:10:30.059Z,100137.17
2018-02-09T12:12:57.525Z,100130.95
2018-02-09T12:15:24.971Z,100130.56
2018-02-09T12:17:52.433Z,100126.08
2018-02-09T12:20:19.948Z,100124.66
2018-02-09T12:22:47.403Z,100121.78
2018-02-09T12:25:14.954Z,100133.01
2018-02-09T12:27:42.458Z,100120.16
2018-02-09T12:30:09.972Z,100114.11
2018-02-09T12:32:38.046Z,100113.12
2018-02-09T12:35:05.504Z,100107.60
2018-02-09T12:37:33.004Z,100109.28
2018-02-09T12:40:00.473Z,100104.00
2018-02-09T12:42:27.944Z,100100.30
2018-02-09T12:44:55.409Z,100100.78
2018-02-09T12:47:22.866Z,100097.41
2018-02-09T12:49:50.340Z,100096.81
2018-02-09T12:52:17.775Z,100097.78
2018-02-09T12:54:45.217Z,100093.68
2018-02-09T12:57:12.721Z,100096.19
2018-02-09T12:59:40.214Z,100095.05
2018-02-09T13:02:07.716Z,100092.73
2018-02-09T13:04:35.223Z,100096.17
2018-02-09T13:07:02.933Z,100092.02
2018-02-09T13:09:30.469Z,100085.84
2018-02-09T13:11:57.916Z,100080.59
2018-02-09T13:14:37.153Z,100079.09
2018-02-09T13:17:04.588Z,100081.80
2018-02-09T13:19:32.936Z,100080.34
2018-02-09T13:22:00.372Z,100083.95
2018-02-09T13:24:27.821Z,100073.16
2018-02-09T13:26:55.253Z,100079.35
2018-02-09T13:29:22.740Z,100081.44
2018-02-09T13:31:50.171Z,100075.21
2018-02-09T13:34:17.643Z,100084.06
2018-02-09T13:50:25.730Z,100078.45
2018-02-09T13:52:53.190Z,100082.52
2018-02-09T13:55:20.644Z,100075.83
2018-02-09T13:57:48.130Z,100075.78
2018-02-09T14:00:15.571Z,100066.16
2018-02-09T14:02:43.068Z,100064.59
2018-02-09T14:05:10.496Z,100068.45
2018-02-09T14:07:38.312Z,100065.70
2018-02-09T14:10:05.779Z,100062.86
2018-02-09T14:12:33.241Z,100068.11
2018-02-09T14:15:00.676Z,100059.67
2018-02-09T14:17:28.135Z,100065.08
2018-02-09T14:19:55.585Z,100058.36
2018-02-09T14:22:23.088Z,100058.38
2018-02-09T14:24:50.526Z,100052.93
2018-02-09T14:27:18.039Z,100056.28
2018-02-09T14:29:45.519Z,100055.78
2018-02-09T14:32:12.956Z,100056.27
2018-02-09T14:34:40.398Z,100060.14
2018-02-09T14:37:07.848Z,100060.32
2018-02-09T14:39:35.295Z,100063.79
2018-02-09T14:42:03.261Z,100054.70
2018-02-09T14:44:30.712Z,100060.61
2018-02-09T14:46:58.169Z,100056.03
2018-02-09T14:49:25.739Z,100059.23
2018-02-09T14:51:53.158Z,100049.54
2018-02-09T14:54:20.619Z,100051.02
2018-02-09T14:56:48.056Z,100053.25
2018-02-09T14:59:15.531Z,100050.69
2018-02-09T15:01:43.009Z,100049.80
2018-02-09T15:04:10.464Z,100049.45
2018-02-09T15:06:37.945Z,100058.62
2018-02-09T15:09:05.384Z,100048.42
2018-02-09T15:11:34.320Z,100050.91
2018-02-09T15:14:01.745Z,100051.91
2018-02-09T15:16:29.252Z,100045.80
2018-02-09T15:18:56.713Z,100041.47
2018-02-09T15:21:24.176Z,100045.79
2018-02-09T15:23:51.642Z,100041.88
2018-02-09T15:26:19.135Z,100037.34
2018-02-09T15:28:46.588Z,100043.89
2018-02-09T15:31:14.121Z,100048.45
2018-02-09T15:33:41.572Z,100043.51
2018-02-09T15:36:09.036Z,100043.81
2018-02-09T15:38:36.474Z,100043.48
2018-02-09T15:41:03.923Z,100042.16
2018-02-09T15:43:31.370Z,100049.12
2018-02-09T15:45:58.797Z,100052.44
2018-02-09T15:48:26.259Z,100051.52
2018-02-09T15:50:53.733Z,100054.73
2018-02-09T15:53:21.186Z,100058.95
2018-02-09T15:55:48.660Z,100055.63
2018-02-09T15:58:16.108Z,100056.66
2018-02-09T16:00:43.563Z,100053.39
2018-02-09T16:03:11.079Z,100059.67
2018-02-09T16:05:39.512Z,100050.50
2018-02-09T16:08:06.986Z,100054.33
2018-02-09T16:10:34.420Z,100056.09
2018-02-09T16:13:01.888Z,100055.99
2018-02-09T16:15:29.377Z,100051.33
2018-02-09T16:17:56.822Z,100060.24
2018-02-09T16:20:24.265Z,100056.73
2018-02-09T16:22:51.774Z,100067.52
2018-02-09T16:25:19.720Z,100068.10
2018-02-09T16:27:53.466Z,100076.14
2018-02-09T16:30:22.060Z,100073.03
2018-02-09T16:32:49.610Z,100078.81
2018-02-09T16:35:17.035Z,100077.78
2018-02-09T16:37:44.466Z,100076.41
2018-02-09T16:40:11.956Z,100077.33
2018-02-09T16:42:39.453Z,100077.64
2018-02-09T16:45:06.919Z,100079.38
2018-02-09T16:47:34.465Z,100075.30
2018-02-09T16:50:01.917Z,100074.09
2018-02-09T16:52:29.350Z,100079.05
2018-02-09T16:54:56.804Z,100085.00
2018-02-09T16:57:24.329Z,100079.27
2018-02-09T16:59:51.947Z,100081.09
2018-02-09T17:02:19.600Z,100078.53
2018-02-09T17:04:47.065Z,100081.45
2018-02-09T17:07:14.508Z,100075.98
2018-02-09T17:09:41.979Z,100080.61
2018-02-09T17:12:09.443Z,100083.89
2018-02-09T17:14:36.919Z,100083.31
2018-02-09T17:17:04.431Z,100086.45
2018-02-09T17:19:31.918Z,100086.20
2018-02-09T17:21:59.379Z,100093.38
2018-02-09T17:24:26.818Z,100095.48
2018-02-09T17:26:54.736Z,100096.47
2018-02-09T17:29:22.194Z,100093.70
2018-02-09T17:31:49.671Z,100099.22
2018-02-09T17:34:17.113Z,100104.41
2018-02-09T17:36:44.711Z,100103.74
2018-02-09T17:39:12.141Z,100098.34
2018-02-09T17:41:39.656Z,100095.00
2018-02-09T17:44:07.286Z,100103.06
2018-02-09T17:46:34.806Z,100102.84
2018-02-09T17:49:02.244Z,100097.63
2018-02-09T17:51:29.791Z,100107.36
2018-02-09T17:53:57.228Z,100104.48
2018-02-09T17:56:24.693Z,100104.94
2018-02-09T17:58:52.152Z,100113.78
2018-02-09T18:01:19.803Z,100114.02
2018-02-09T18:03:47.257Z,100117.81
2018-02-09T18:06:14.730Z,100118.98
2018-02-09T18:08:42.184Z,100121.26
2018-02-09T18:11:09.644Z,100114.34
2018-02-09T18:13:40.889Z,100114.21
2018-02-09T18:16:10.374Z,100111.87
2018-02-09T18:18:38.047Z,100107.42
2018-02-09T18:21:05.614Z,100106.89
2018-02-09T18:23:33.121Z,100109.84
2018-02-09T18:26:00.610Z,100116.47
2018-02-09T18:28:28.118Z,100108.59
2018-02-09T18:30:55.668Z,100113.74
2018-02-09T18:33:23.133Z,100112.27
2018-02-09T18:35:50.557Z,100115.50
2018-02-09T18:38:18.033Z,100115.02
2018-02-09T18:40:45.476Z,100117.71
2018-02-09T18:43:13.028Z,100121.20
2018-02-09T18:45:40.452Z,100114.16
2018-02-09T18:48:07.876Z,100120.41
2018-02-09T18:50:35.600Z,100112.08
2018-02-09T18:53:03.048Z,100108.16
2018-02-09T18:55:30.498Z,100119.50
2018-02-09T18:57:58.067Z,100125.30
2018-02-09T19:00:25.521Z,100121.74
2018-02-09T19:02:52.970Z,100125.27
2018-02-09T19:05:20.486Z,100124.87
2018-02-09T19:07:47.956Z,100121.77
2018-02-09T19:10:15.439Z,100118.94
2018-02-09T19:12:42.876Z,100123.05
2018-02-09T19:15:10.337Z,100123.89
2018-02-09T19:17:37.778Z,100116.98
2018-02-09T19:20:05.372Z,100119.97
2018-02-09T19:22:32.800Z,100121.25
2018-02-09T19:25:00.366Z,100125.00
2018-02-09T19:27:27.803Z,100124.34
2018-02-09T19:29:55.337Z,100122.42
2018-02-09T19:32:23.301Z,100116.88
2018-02-09T19:34:50.757Z,100125.99
2018-02-09T19:37:18.215Z,100127.98
2018-02-09T19:39:45.696Z,100128.84
2018-02-09T19:42:13.133Z,100129.88
2018-02-09T19:44:40.636Z,100129.23
2018-02-09T19:47:08.096Z,100130.03
2018-02-09T19:49:35.539Z,100122.72
2018-02-09T19:52:02.996Z,100128.09
2018-02-09T19:54:30.437Z,100128.02
2018-02-09T19:56:57.893Z,100130.06
2018-02-09T19:59:25.337Z,100127.30
2018-02-09T20:01:52.785Z,100133.59
2018-02-09T20:04:20.242Z,100126.31
2018-02-09T20:06:47.735Z,100126.11
2018-02-09T20:09:15.228Z,100124.80
2018-02-09T20:11:42.737Z,100129.14
2018-02-09T20:14:10.241Z,100124.02
2018-02-09T20:16:37.696Z,100128.20
2018-02-09T20:19:05.134Z,100129.36
2018-02-09T20:21:32.656Z,100129.90
2018-02-09T20:24:00.111Z,100130.11
2018-02-09T20:26:27.565Z,100129.28
2018-02-09T20:28:55.036Z,100128.87
2018-02-09T20:31:22.534Z,100126.44
2018-02-09T20:33:50.023Z,100128.30
2018-02-09T20:36:17.533Z,100129.57
2018-02-09T20:38:45.007Z,100119.33
2018-02-09T20:41:12.669Z,100122.39
2018-02-09T20:43:40.138Z,100121.59
2018-02-09T20:46:07.562Z,100120.77
2018-02-09T20:48:35.404Z,100119.76
2018-02-09T20:51:02.840Z,100117.53
2018-02-09T20:53:30.291Z,100117.45
2018-02-09T20:55:57.757Z,100119.11
2018-02-09T20:58:25.204Z,100124.72
2018-02-09T21:00:52.660Z,100122.13
2018-02-09T21:03:20.131Z,100120.95
2018-02-09T21:05:47.588Z,100123.64
2018-02-09T21:08:15.031Z,100125.74
2018-02-09T21:10:42.473Z,100129.23
2018-02-09T21:13:09.964Z,100123.59
2018-02-09T21:15:37.406Z,100126.62
2018-02-09T21:18:05.373Z,100127.88
2018-02-09T21:20:33.877Z,100126.98
2018-02-09T21:23:07.561Z,100125.82
2018-02-09T21:25:35.415Z,100136.83
2018-02-09T21:28:02.891Z,100128.16
2018-02-09T21:30:30.357Z,100139.70
2018-02-09T21:32:57.833Z,100135.73
2018-02-09T21:35:25.284Z,100130.30
2018-02-09T21:37:52.823Z,100128.26
2018-02-09T21:40:20.360Z,100125.42
2018-02-09T21:42:49.834Z,100129.89
2018-02-09T21:45:17.339Z,100126.69
2018-02-09T21:47:44.789Z,100120.45
2018-02-09T21:50:12.239Z,100124.78
2018-02-09T21:52:39.713Z,100125.96
2018-02-09T21:55:07.181Z,100125.78
2018-02-09T21:57:35.203Z,100125.39
2018-02-09T22:00:02.809Z,100129.13
2018-02-09T22:02:30.450Z,100132.92
2018-02-09T22:04:58.037Z,100136.09
2018-02-09T22:07:25.728Z,100133.14
2018-02-09T22:09:54.441Z,100125.21
2018-02-09T22:12:23.903Z,100136.53
2018-02-09T22:14:51.425Z,100133.75
2018-02-09T22:17:20.402Z,100136.56
2018-02-09T22:19:48.574Z,100138.66
2018-02-09T22:22:16.085Z,100136.02
2018-02-09T22:24:43.784Z,100137.04
2018-02-09T22:27:11.550Z,100132.42
2018-02-09T22:29:39.213Z,100138.48
2018-02-09T22:32:06.735Z,100133.10
2018-02-09T22:34:35.295Z,100131.30
2018-02-09T22:37:03.094Z,100138.89
2018-02-09T22:39:30.593Z,100132.59
2018-02-09T22:42:03.687Z,100136.48
2018-02-09T22:44:31.255Z,100135.81
2018-02-09T22:46:58.724Z,100136.96
2018-02-09T22:49:26.161Z,100135.34
2018-02-09T22:51:53.663Z,100139.88
2018-02-09T22:54:21.253Z,100141.50
2018-02-09T22:56:48.788Z,100135.02
2018-02-09T22:59:16.333Z,100138.77
2018-02-09T23:01:43.802Z,100140.78
2018-02-09T23:04:11.253Z,100143.30
2018-02-09T23:06:38.732Z,100137.67
2018-02-09T23:09:06.165Z,100136.09
2018-02-09T23:11:33.767Z,100135.17
2018-02-09T23:14:01.397Z,100129.97
2018-02-09T23:16:28.846Z,100136.05
2018-02-09T23:18:56.309Z,100134.09
2018-02-09T23:21:23.767Z,100140.11
2018-02-09T23:23:51.240Z,100138.59
2018-02-09T23:26:18.690Z,100142.76
2018-02-09T23:28:46.137Z,100139.34
2018-02-09T23:31:13.596Z,100140.33
2018-02-09T23:33:41.174Z,100144.64
2018-02-09T23:36:08.621Z,100137.81
2018-02-09T23:38:36.148Z,100147.37
2018-02-09T23:41:03.587Z,100146.00
2018-02-09T23:43:31.070Z,100146.97
2018-02-09T23:45:58.531Z,100133.38
2018-02-09T23:48:26.009Z,100137.63
2018-02-09T23:50:53.455Z,100133.77
2018-02-09T23:53:20.920Z,100136.36
